sensor_id;sensor_type;location;lat;lon;timestamp;noise_LAeq;noise_LA_min;noise_LA_max;noise_LA01;noise_LA95
72276;Laerm;61204;49.980;8.358;2023-03-03T00:01:18;45.31;37.82;55.78;;
72276;Laerm;61204;49.980;8.358;2023-03-03T00:03:44;48.94;38.44;58.73;;
72276;Laerm;61204;49.980;8.358;2023-03-03T00:06:15;44.05;38.20;51.81;;
72276;Laerm;61204;49.980;8.358;2023-03-03T00:08:41;44.98;38.39;53.29;;
72276;Laerm;61204;49.980;8.358;2023-03-03T00:11:07;49.32;40.72;57.16;;
72276;Laerm;61204;49.980;8.358;2023-03-03T00:13:52;46.32;38.96;54.61;;
72276;Laerm;61204;49.980;8.358;2023-03-03T00:16:28;43.03;37.97;50.25;;
72276;Laerm;61204;49.980;8.358;2023-03-03T00:18:55;46.20;39.56;54.34;;
72276;Laerm;61204;49.980;8.358;2023-03-03T00:21:28;49.80;39.99;57.07;;
72276;Laerm;61204;49.980;8.358;2023-03-03T00:24:18;47.19;41.47;54.03;;
72276;Laerm;61204;49.980;8.358;2023-03-03T00:26:54;47.88;40.23;58.13;;
72276;Laerm;61204;49.980;8.358;2023-03-03T00:29:59;46.92;39.88;56.49;;
72276;Laerm;61204;49.980;8.358;2023-03-03T00:32:27;44.84;39.24;51.70;;
72276;Laerm;61204;49.980;8.358;2023-03-03T00:35:17;44.22;38.78;51.78;;
72276;Laerm;61204;49.980;8.358;2023-03-03T00:37:45;45.68;40.74;51.09;;
72276;Laerm;61204;49.980;8.358;2023-03-03T00:40:22;45.49;40.37;57.61;;
72276;Laerm;61204;49.980;8.358;2023-03-03T00:42:54;45.16;41.15;52.74;;
72276;Laerm;61204;49.980;8.358;2023-03-03T00:47:53;43.73;38.44;48.29;;
72276;Laerm;61204;49.980;8.358;2023-03-03T00:50:31;42.16;37.40;50.39;;
72276;Laerm;61204;49.980;8.358;2023-03-03T00:53:02;42.98;37.30;50.70;;
72276;Laerm;61204;49.980;8.358;2023-03-03T00:55:29;43.21;37.58;51.54;;
72276;Laerm;61204;49.980;8.358;2023-03-03T00:57:55;45.08;39.32;54.44;;
72276;Laerm;61204;49.980;8.358;2023-03-03T01:00:21;44.40;39.43;52.43;;
72276;Laerm;61204;49.980;8.358;2023-03-03T01:02:46;44.17;39.26;52.99;;
72276;Laerm;61204;49.980;8.358;2023-03-03T01:05:14;45.49;40.05;53.40;;
72276;Laerm;61204;49.980;8.358;2023-03-03T01:07:40;43.25;37.98;49.57;;
72276;Laerm;61204;49.980;8.358;2023-03-03T01:10:07;43.40;38.02;50.23;;
72276;Laerm;61204;49.980;8.358;2023-03-03T01:12:33;45.69;40.51;61.52;;
72276;Laerm;61204;49.980;8.358;2023-03-03T01:15:01;42.88;37.39;48.21;;
72276;Laerm;61204;49.980;8.358;2023-03-03T01:17:27;48.63;39.56;60.05;;
72276;Laerm;61204;49.980;8.358;2023-03-03T01:19:55;42.57;38.82;50.27;;
72276;Laerm;61204;49.980;8.358;2023-03-03T01:22:20;43.65;38.94;50.32;;
72276;Laerm;61204;49.980;8.358;2023-03-03T01:24:46;48.72;39.39;63.09;;
72276;Laerm;61204;49.980;8.358;2023-03-03T01:27:11;45.50;41.22;50.73;;
72276;Laerm;61204;49.980;8.358;2023-03-03T01:29:37;48.78;39.63;59.75;;
72276;Laerm;61204;49.980;8.358;2023-03-03T01:32:02;43.22;38.32;52.44;;
72276;Laerm;61204;49.980;8.358;2023-03-03T01:34:28;42.16;37.86;49.16;;
72276;Laerm;61204;49.980;8.358;2023-03-03T01:36:53;43.57;36.91;51.84;;
72276;Laerm;61204;49.980;8.358;2023-03-03T01:39:21;44.09;38.90;48.50;;
72276;Laerm;61204;49.980;8.358;2023-03-03T01:41:46;42.43;37.76;49.19;;
72276;Laerm;61204;49.980;8.358;2023-03-03T01:44:15;41.75;36.88;47.11;;
72276;Laerm;61204;49.980;8.358;2023-03-03T01:49:35;42.01;37.00;51.09;;
72276;Laerm;61204;49.980;8.358;2023-03-03T01:55:00;42.74;38.08;48.34;;
72276;Laerm;61204;49.980;8.358;2023-03-03T01:57:35;40.74;35.41;46.45;;
72276;Laerm;61204;49.980;8.358;2023-03-03T02:00:05;41.29;37.05;46.48;;
72276;Laerm;61204;49.980;8.358;2023-03-03T02:02:33;42.89;37.36;51.61;;
72276;Laerm;61204;49.980;8.358;2023-03-03T02:04:59;44.06;37.56;53.93;;
72276;Laerm;61204;49.980;8.358;2023-03-03T02:07:27;43.52;38.54;48.80;;
72276;Laerm;61204;49.980;8.358;2023-03-03T02:10:11;44.91;38.54;50.46;;
72276;Laerm;61204;49.980;8.358;2023-03-03T02:12:48;45.02;40.36;51.38;;
72276;Laerm;61204;49.980;8.358;2023-03-03T02:15:40;44.94;40.01;53.93;;
72276;Laerm;61204;49.980;8.358;2023-03-03T02:18:13;46.58;39.84;56.66;;
72276;Laerm;61204;49.980;8.358;2023-03-03T02:26:17;43.80;38.12;64.51;;
72276;Laerm;61204;49.980;8.358;2023-03-03T02:28:44;42.17;36.76;50.03;;
72276;Laerm;61204;49.980;8.358;2023-03-03T02:31:15;41.06;37.06;47.56;;
72276;Laerm;61204;49.980;8.358;2023-03-03T02:33:45;43.70;38.79;49.11;;
72276;Laerm;61204;49.980;8.358;2023-03-03T02:36:18;44.45;40.17;50.39;;
72276;Laerm;61204;49.980;8.358;2023-03-03T02:41:39;46.86;42.98;52.41;;
72276;Laerm;61204;49.980;8.358;2023-03-03T02:44:10;47.42;40.94;58.20;;
72276;Laerm;61204;49.980;8.358;2023-03-03T02:46:40;44.69;40.08;50.58;;
72276;Laerm;61204;49.980;8.358;2023-03-03T02:49:08;44.41;39.83;49.19;;
72276;Laerm;61204;49.980;8.358;2023-03-03T02:51:36;43.14;39.12;47.32;;
72276;Laerm;61204;49.980;8.358;2023-03-03T02:54:02;43.35;39.20;48.63;;
72276;Laerm;61204;49.980;8.358;2023-03-03T02:56:31;44.34;39.79;48.18;;
72276;Laerm;61204;49.980;8.358;2023-03-03T02:58:56;44.14;39.58;48.41;;
72276;Laerm;61204;49.980;8.358;2023-03-03T03:01:22;44.35;40.18;50.03;;
72276;Laerm;61204;49.980;8.358;2023-03-03T03:03:47;46.09;41.70;51.68;;
72276;Laerm;61204;49.980;8.358;2023-03-03T03:06:13;43.70;40.40;49.80;;
72276;Laerm;61204;49.980;8.358;2023-03-03T03:08:39;43.07;37.27;50.15;;
72276;Laerm;61204;49.980;8.358;2023-03-03T03:11:05;41.71;38.15;45.68;;
72276;Laerm;61204;49.980;8.358;2023-03-03T03:13:31;43.79;37.58;53.86;;
72276;Laerm;61204;49.980;8.358;2023-03-03T03:15:58;42.41;37.96;48.66;;
72276;Laerm;61204;49.980;8.358;2023-03-03T03:18:24;44.95;40.40;50.74;;
72276;Laerm;61204;49.980;8.358;2023-03-03T03:20:50;44.69;40.12;50.05;;
72276;Laerm;61204;49.980;8.358;2023-03-03T03:23:16;53.84;41.69;68.81;;
72276;Laerm;61204;49.980;8.358;2023-03-03T03:25:44;46.74;40.01;59.98;;
72276;Laerm;61204;49.980;8.358;2023-03-03T03:28:16;48.42;39.49;60.11;;
72276;Laerm;61204;49.980;8.358;2023-03-03T03:30:43;46.77;39.52;55.80;;
72276;Laerm;61204;49.980;8.358;2023-03-03T03:33:10;43.59;38.68;49.00;;
72276;Laerm;61204;49.980;8.358;2023-03-03T03:35:38;44.22;40.39;48.50;;
72276;Laerm;61204;49.980;8.358;2023-03-03T03:38:10;43.90;40.11;52.01;;
72276;Laerm;61204;49.980;8.358;2023-03-03T03:40:35;44.06;39.49;50.12;;
72276;Laerm;61204;49.980;8.358;2023-03-03T03:43:01;46.92;42.66;52.03;;
72276;Laerm;61204;49.980;8.358;2023-03-03T03:45:26;47.25;43.59;62.32;;
72276;Laerm;61204;49.980;8.358;2023-03-03T03:47:51;46.06;42.33;49.76;;
72276;Laerm;61204;49.980;8.358;2023-03-03T03:50:19;50.44;42.59;61.86;;
72276;Laerm;61204;49.980;8.358;2023-03-03T03:52:45;46.04;41.78;51.37;;
72276;Laerm;61204;49.980;8.358;2023-03-03T03:55:11;48.58;42.42;59.05;;
72276;Laerm;61204;49.980;8.358;2023-03-03T03:57:37;46.86;40.19;55.48;;
72276;Laerm;61204;49.980;8.358;2023-03-03T04:00:05;58.21;44.37;70.08;;
72276;Laerm;61204;49.980;8.358;2023-03-03T04:02:30;56.94;44.59;68.32;;
72276;Laerm;61204;49.980;8.358;2023-03-03T04:04:56;56.98;45.79;68.17;;
72276;Laerm;61204;49.980;8.358;2023-03-03T04:07:21;60.47;44.87;71.85;;
72276;Laerm;61204;49.980;8.358;2023-03-03T04:09:47;48.25;43.99;52.75;;
72276;Laerm;61204;49.980;8.358;2023-03-03T04:12:12;55.10;45.23;65.33;;
72276;Laerm;61204;49.980;8.358;2023-03-03T04:14:38;56.88;44.90;66.81;;
72276;Laerm;61204;49.980;8.358;2023-03-03T04:17:05;47.19;43.37;50.60;;
72276;Laerm;61204;49.980;8.358;2023-03-03T04:19:31;60.17;44.60;71.02;;
72276;Laerm;61204;49.980;8.358;2023-03-03T04:21:56;47.75;43.15;57.56;;
72276;Laerm;61204;49.980;8.358;2023-03-03T04:24:21;47.30;41.81;56.78;;
72276;Laerm;61204;49.980;8.358;2023-03-03T04:26:49;49.77;44.57;61.33;;
72276;Laerm;61204;49.980;8.358;2023-03-03T04:29:15;54.03;44.12;63.98;;
72276;Laerm;61204;49.980;8.358;2023-03-03T04:31:40;56.30;44.60;65.89;;
72276;Laerm;61204;49.980;8.358;2023-03-03T04:34:08;52.03;45.88;59.52;;
72276;Laerm;61204;49.980;8.358;2023-03-03T04:36:33;58.17;46.65;68.02;;
72276;Laerm;61204;49.980;8.358;2023-03-03T04:38:59;49.75;45.87;55.01;;
72276;Laerm;61204;49.980;8.358;2023-03-03T04:41:24;49.46;45.81;54.65;;
72276;Laerm;61204;49.980;8.358;2023-03-03T04:43:50;56.17;48.01;65.88;;
72276;Laerm;61204;49.980;8.358;2023-03-03T04:46:15;61.30;47.58;73.39;;
72276;Laerm;61204;49.980;8.358;2023-03-03T04:48:40;59.98;45.38;72.06;;
72276;Laerm;61204;49.980;8.358;2023-03-03T04:51:06;50.03;45.78;60.25;;
72276;Laerm;61204;49.980;8.358;2023-03-03T04:53:34;49.52;45.45;55.25;;
72276;Laerm;61204;49.980;8.358;2023-03-03T04:56:00;57.77;47.53;68.26;;
72276;Laerm;61204;49.980;8.358;2023-03-03T04:58:28;50.37;45.64;55.59;;
72276;Laerm;61204;49.980;8.358;2023-03-03T05:00:57;53.91;44.13;64.89;;
72276;Laerm;61204;49.980;8.358;2023-03-03T05:03:23;55.07;46.94;66.11;;
72276;Laerm;61204;49.980;8.358;2023-03-03T05:05:49;58.75;47.14;71.61;;
72276;Laerm;61204;49.980;8.358;2023-03-03T05:08:17;56.18;47.30;67.05;;
72276;Laerm;61204;49.980;8.358;2023-03-03T05:10:42;60.41;48.11;71.43;;
72276;Laerm;61204;49.980;8.358;2023-03-03T05:13:08;56.94;48.02;69.73;;
72276;Laerm;61204;49.980;8.358;2023-03-03T05:15:34;60.17;48.00;72.03;;
72276;Laerm;61204;49.980;8.358;2023-03-03T05:18:00;54.21;47.29;64.40;;
72276;Laerm;61204;49.980;8.358;2023-03-03T05:20:27;58.44;47.79;70.96;;
72276;Laerm;61204;49.980;8.358;2023-03-03T05:22:53;59.13;49.04;73.64;;
72276;Laerm;61204;49.980;8.358;2023-03-03T05:25:20;53.36;47.45;61.87;;
72276;Laerm;61204;49.980;8.358;2023-03-03T05:27:45;52.01;47.85;61.13;;
72276;Laerm;61204;49.980;8.358;2023-03-03T05:30:13;59.00;46.49;71.81;;
72276;Laerm;61204;49.980;8.358;2023-03-03T05:32:39;50.06;46.16;57.88;;
72276;Laerm;61204;49.980;8.358;2023-03-03T05:35:05;51.94;46.92;61.56;;
72276;Laerm;61204;49.980;8.358;2023-03-03T05:37:30;50.61;45.94;56.39;;
72276;Laerm;61204;49.980;8.358;2023-03-03T05:39:56;54.23;45.19;65.00;;
72276;Laerm;61204;49.980;8.358;2023-03-03T05:42:21;49.06;45.46;61.80;;
72276;Laerm;61204;49.980;8.358;2023-03-03T05:44:47;49.59;44.74;56.78;;
72276;Laerm;61204;49.980;8.358;2023-03-03T05:47:13;51.53;47.23;58.01;;
72276;Laerm;61204;49.980;8.358;2023-03-03T05:49:41;51.85;48.07;64.67;;
72276;Laerm;61204;49.980;8.358;2023-03-03T05:52:06;55.57;48.79;65.42;;
72276;Laerm;61204;49.980;8.358;2023-03-03T05:54:33;57.11;48.99;67.10;;
72276;Laerm;61204;49.980;8.358;2023-03-03T05:56:59;59.59;49.11;72.41;;
72276;Laerm;61204;49.980;8.358;2023-03-03T05:59:26;58.90;51.19;68.05;;
72276;Laerm;61204;49.980;8.358;2023-03-03T06:01:52;54.21;48.49;60.26;;
72276;Laerm;61204;49.980;8.358;2023-03-03T06:04:17;58.04;48.99;68.01;;
72276;Laerm;61204;49.980;8.358;2023-03-03T06:06:43;61.09;50.76;73.46;;
72276;Laerm;61204;49.980;8.358;2023-03-03T06:09:08;56.77;50.08;67.13;;
72276;Laerm;61204;49.980;8.358;2023-03-03T06:11:34;57.02;50.52;65.50;;
72276;Laerm;61204;49.980;8.358;2023-03-03T06:13:59;57.88;48.90;67.18;;
72276;Laerm;61204;49.980;8.358;2023-03-03T06:16:25;56.39;48.89;64.68;;
72276;Laerm;61204;49.980;8.358;2023-03-03T06:18:50;60.21;48.86;71.30;;
72276;Laerm;61204;49.980;8.358;2023-03-03T06:21:16;57.53;47.84;67.77;;
72276;Laerm;61204;49.980;8.358;2023-03-03T06:23:41;52.33;48.79;60.63;;
72276;Laerm;61204;49.980;8.358;2023-03-03T06:26:07;55.29;48.21;66.94;;
72276;Laerm;61204;49.980;8.358;2023-03-03T06:28:32;58.02;50.42;66.65;;
72276;Laerm;61204;49.980;8.358;2023-03-03T06:30:58;58.66;50.52;67.71;;
72276;Laerm;61204;49.980;8.358;2023-03-03T06:33:23;58.99;49.44;68.46;;
72276;Laerm;61204;49.980;8.358;2023-03-03T06:35:53;57.56;49.04;65.39;;
72276;Laerm;61204;49.980;8.358;2023-03-03T06:38:18;56.26;48.81;64.77;;
72276;Laerm;61204;49.980;8.358;2023-03-03T06:40:45;57.72;50.69;65.87;;
72276;Laerm;61204;49.980;8.358;2023-03-03T06:43:12;56.60;49.43;67.98;;
72276;Laerm;61204;49.980;8.358;2023-03-03T06:45:38;61.79;50.76;73.43;;
72276;Laerm;61204;49.980;8.358;2023-03-03T06:48:06;57.46;49.44;67.94;;
72276;Laerm;61204;49.980;8.358;2023-03-03T06:50:31;57.56;50.57;68.13;;
72276;Laerm;61204;49.980;8.358;2023-03-03T06:53:10;58.74;50.57;67.22;;
72276;Laerm;61204;49.980;8.358;2023-03-03T06:55:39;57.01;51.30;68.37;;
72276;Laerm;61204;49.980;8.358;2023-03-03T06:58:17;58.53;50.67;66.45;;
72276;Laerm;61204;49.980;8.358;2023-03-03T07:00:57;55.97;48.92;65.41;;
72276;Laerm;61204;49.980;8.358;2023-03-03T07:03:32;57.45;49.47;67.10;;
72276;Laerm;61204;49.980;8.358;2023-03-03T07:05:58;57.28;48.84;67.94;;
72276;Laerm;61204;49.980;8.358;2023-03-03T07:08:25;58.44;48.53;71.56;;
72276;Laerm;61204;49.980;8.358;2023-03-03T07:10:54;55.93;48.49;67.66;;
72276;Laerm;61204;49.980;8.358;2023-03-03T07:13:27;60.85;47.64;71.30;;
72276;Laerm;61204;49.980;8.358;2023-03-03T07:16:04;58.27;47.99;68.28;;
72276;Laerm;61204;49.980;8.358;2023-03-03T07:18:39;57.16;47.70;75.36;;
72276;Laerm;61204;49.980;8.358;2023-03-03T07:21:27;53.55;47.46;62.46;;
72276;Laerm;61204;49.980;8.358;2023-03-03T07:23:56;57.79;48.74;73.83;;
72276;Laerm;61204;49.980;8.358;2023-03-03T07:26:29;59.29;47.40;70.88;;
72276;Laerm;61204;49.980;8.358;2023-03-03T07:29:24;56.40;47.46;68.21;;
72276;Laerm;61204;49.980;8.358;2023-03-03T07:31:51;52.41;47.04;63.25;;
72276;Laerm;61204;49.980;8.358;2023-03-03T07:34:51;61.92;47.67;74.35;;
72276;Laerm;61204;49.980;8.358;2023-03-03T07:37:29;55.58;46.92;74.50;;
72276;Laerm;61204;49.980;8.358;2023-03-03T07:39:56;52.67;47.93;60.10;;
72276;Laerm;61204;49.980;8.358;2023-03-03T07:42:40;58.19;48.72;71.24;;
72276;Laerm;61204;49.980;8.358;2023-03-03T07:50:40;57.27;47.22;67.68;;
72276;Laerm;61204;49.980;8.358;2023-03-03T07:53:33;54.99;45.98;65.48;;
72276;Laerm;61204;49.980;8.358;2023-03-03T07:56:01;56.07;47.06;68.09;;
72276;Laerm;61204;49.980;8.358;2023-03-03T07:58:38;53.59;47.04;65.40;;
72276;Laerm;61204;49.980;8.358;2023-03-03T08:01:34;56.14;46.63;65.28;;
72276;Laerm;61204;49.980;8.358;2023-03-03T08:04:27;59.03;50.67;74.29;;
72276;Laerm;61204;49.980;8.358;2023-03-03T08:06:59;55.53;51.38;62.75;;
72276;Laerm;61204;49.980;8.358;2023-03-03T08:09:46;55.52;51.53;63.72;;
72276;Laerm;61204;49.980;8.358;2023-03-03T08:12:35;57.88;49.93;69.42;;
72276;Laerm;61204;49.980;8.358;2023-03-03T08:15:20;56.19;50.98;64.89;;
72276;Laerm;61204;49.980;8.358;2023-03-03T08:17:51;58.80;50.90;68.54;;
72276;Laerm;61204;49.980;8.358;2023-03-03T08:21:11;56.38;52.29;63.61;;
72276;Laerm;61204;49.980;8.358;2023-03-03T08:23:27;56.91;51.03;69.92;;
72276;Laerm;61204;49.980;8.358;2023-03-03T08:25:53;57.71;50.90;69.18;;
72276;Laerm;61204;49.980;8.358;2023-03-03T08:28:20;57.22;52.11;64.11;;
72276;Laerm;61204;49.980;8.358;2023-03-03T08:30:47;57.05;49.99;66.83;;
72276;Laerm;61204;49.980;8.358;2023-03-03T08:33:13;55.72;50.12;65.65;;
72276;Laerm;61204;49.980;8.358;2023-03-03T08:35:40;56.93;51.50;66.74;;
72276;Laerm;61204;49.980;8.358;2023-03-03T08:38:07;55.87;49.63;63.25;;
72276;Laerm;61204;49.980;8.358;2023-03-03T08:40:34;55.60;50.21;61.48;;
72276;Laerm;61204;49.980;8.358;2023-03-03T08:43:01;57.06;50.96;69.37;;
72276;Laerm;61204;49.980;8.358;2023-03-03T08:45:27;56.59;52.13;64.30;;
72276;Laerm;61204;49.980;8.358;2023-03-03T08:47:53;56.02;50.23;69.32;;
72276;Laerm;61204;49.980;8.358;2023-03-03T08:50:19;56.81;51.45;65.91;;
72276;Laerm;61204;49.980;8.358;2023-03-03T08:52:45;56.41;51.23;62.15;;
72276;Laerm;61204;49.980;8.358;2023-03-03T08:55:12;57.38;48.13;64.18;;
72276;Laerm;61204;49.980;8.358;2023-03-03T08:57:37;59.80;53.13;72.18;;
72276;Laerm;61204;49.980;8.358;2023-03-03T09:00:09;59.73;48.52;67.38;;
72276;Laerm;61204;49.980;8.358;2023-03-03T09:02:36;61.25;48.48;71.48;;
72276;Laerm;61204;49.980;8.358;2023-03-03T09:05:03;60.25;48.50;72.73;;
72276;Laerm;61204;49.980;8.358;2023-03-03T09:07:28;56.02;46.72;64.89;;
72276;Laerm;61204;49.980;8.358;2023-03-03T09:09:53;55.27;46.27;67.58;;
72276;Laerm;61204;49.980;8.358;2023-03-03T09:12:38;52.80;45.40;63.40;;
72276;Laerm;61204;49.980;8.358;2023-03-03T09:15:23;56.47;45.68;65.34;;
72276;Laerm;61204;49.980;8.358;2023-03-03T09:17:50;56.18;46.86;69.01;;
72276;Laerm;61204;49.980;8.358;2023-03-03T09:20:35;56.03;45.74;67.62;;
72276;Laerm;61204;49.980;8.358;2023-03-03T09:23:32;57.06;47.99;69.84;;
72276;Laerm;61204;49.980;8.358;2023-03-03T09:26:22;52.15;42.01;66.24;;
72276;Laerm;61204;49.980;8.358;2023-03-03T09:28:53;54.63;42.39;67.89;;
72276;Laerm;61204;49.980;8.358;2023-03-03T09:31:38;50.93;42.30;61.60;;
72276;Laerm;61204;49.980;8.358;2023-03-03T09:34:19;60.36;44.14;73.03;;
72276;Laerm;61204;49.980;8.358;2023-03-03T09:36:51;55.74;45.77;68.88;;
72276;Laerm;61204;49.980;8.358;2023-03-03T09:39:25;56.78;47.42;67.48;;
72276;Laerm;61204;49.980;8.358;2023-03-03T09:50:21;56.16;44.73;70.59;;
72276;Laerm;61204;49.980;8.358;2023-03-03T10:07:16;55.38;41.88;71.88;;
72276;Laerm;61204;49.980;8.358;2023-03-03T10:21:48;54.19;43.88;68.54;;
72276;Laerm;61204;49.980;8.358;2023-03-03T10:24:30;58.14;42.17;73.61;;
72276;Laerm;61204;49.980;8.358;2023-03-03T10:27:38;55.42;43.01;68.18;;
72276;Laerm;61204;49.980;8.358;2023-03-03T10:44:42;55.40;42.36;70.34;;
72276;Laerm;61204;49.980;8.358;2023-03-03T10:50:05;55.09;41.89;68.16;;
72276;Laerm;61204;49.980;8.358;2023-03-03T10:52:43;54.84;40.42;68.71;;
72276;Laerm;61204;49.980;8.358;2023-03-03T11:06:25;54.01;43.92;67.72;;
72276;Laerm;61204;49.980;8.358;2023-03-03T11:09:07;55.25;43.88;68.37;;
72276;Laerm;61204;49.980;8.358;2023-03-03T11:14:52;55.86;43.42;74.25;;
72276;Laerm;61204;49.980;8.358;2023-03-03T11:17:47;53.49;44.23;70.41;;
72276;Laerm;61204;49.980;8.358;2023-03-03T11:20:26;56.92;46.78;68.37;;
72276;Laerm;61204;49.980;8.358;2023-03-03T11:23:02;57.54;45.84;68.44;;
72276;Laerm;61204;49.980;8.358;2023-03-03T11:25:42;53.30;42.96;65.06;;
72276;Laerm;61204;49.980;8.358;2023-03-03T11:31:37;58.90;45.32;71.79;;
72276;Laerm;61204;49.980;8.358;2023-03-03T11:34:50;55.86;46.34;67.46;;
72276;Laerm;61204;49.980;8.358;2023-03-03T11:38:20;52.13;44.01;62.77;;
72276;Laerm;61204;49.980;8.358;2023-03-03T11:40:20;58.80;46.74;72.71;;
72276;Laerm;61204;49.980;8.358;2023-03-03T11:43:02;51.33;44.22;58.05;;
72276;Laerm;61204;49.980;8.358;2023-03-03T11:45:52;54.03;43.76;66.94;;
72276;Laerm;61204;49.980;8.358;2023-03-03T11:48:39;51.53;42.06;65.67;;
72276;Laerm;61204;49.980;8.358;2023-03-03T11:52:13;57.53;43.62;68.57;;
72276;Laerm;61204;49.980;8.358;2023-03-03T11:56:46;57.93;42.51;69.33;;
72276;Laerm;61204;49.980;8.358;2023-03-03T12:02:45;54.02;42.58;66.57;;
72276;Laerm;61204;49.980;8.358;2023-03-03T12:05:33;61.09;43.50;75.80;;
72276;Laerm;61204;49.980;8.358;2023-03-03T12:08:27;49.22;43.29;59.51;;
72276;Laerm;61204;49.980;8.358;2023-03-03T12:17:49;60.87;43.01;74.52;;
72276;Laerm;61204;49.980;8.358;2023-03-03T12:26:24;57.22;43.34;70.64;;
72276;Laerm;61204;49.980;8.358;2023-03-03T12:35:50;56.60;42.96;75.32;;
72276;Laerm;61204;49.980;8.358;2023-03-03T12:43:54;50.90;43.87;61.81;;
72276;Laerm;61204;49.980;8.358;2023-03-03T12:46:58;52.92;41.90;64.60;;
72276;Laerm;61204;49.980;8.358;2023-03-03T12:58:27;46.19;40.72;59.89;;
72276;Laerm;61204;49.980;8.358;2023-03-03T13:01:38;47.85;41.27;59.74;;
72276;Laerm;61204;49.980;8.358;2023-03-03T13:04:35;57.65;37.47;75.88;;
72276;Laerm;61204;49.980;8.358;2023-03-03T13:07:18;57.11;40.73;72.78;;
72276;Laerm;61204;49.980;8.358;2023-03-03T13:13:24;51.27;43.53;60.25;;
72276;Laerm;61204;49.980;8.358;2023-03-03T13:16:03;51.61;40.76;65.75;;
72276;Laerm;61204;49.980;8.358;2023-03-03T13:21:28;50.79;41.53;63.85;;
72276;Laerm;61204;49.980;8.358;2023-03-03T13:26:51;54.62;40.77;69.98;;
72276;Laerm;61204;49.980;8.358;2023-03-03T13:29:59;48.18;41.02;60.19;;
72276;Laerm;61204;49.980;8.358;2023-03-03T13:35:49;47.72;42.79;55.99;;
72276;Laerm;61204;49.980;8.358;2023-03-03T13:38:27;51.27;44.08;60.11;;
72276;Laerm;61204;49.980;8.358;2023-03-03T13:52:41;53.76;41.26;67.55;;
72276;Laerm;61204;49.980;8.358;2023-03-03T14:04:10;47.31;41.19;57.33;;
72276;Laerm;61204;49.980;8.358;2023-03-03T14:06:43;47.45;41.31;57.52;;
72276;Laerm;61204;49.980;8.358;2023-03-03T14:15:32;53.51;41.63;68.76;;
72276;Laerm;61204;49.980;8.358;2023-03-03T14:24:26;54.54;43.85;67.37;;
72276;Laerm;61204;49.980;8.358;2023-03-03T14:26:58;49.03;44.18;55.43;;
72276;Laerm;61204;49.980;8.358;2023-03-03T14:31:54;55.48;41.76;67.09;;
72276;Laerm;61204;49.980;8.358;2023-03-03T14:36:50;57.03;43.58;67.95;;
72276;Laerm;61204;49.980;8.358;2023-03-03T14:39:33;56.09;43.03;69.65;;
72276;Laerm;61204;49.980;8.358;2023-03-03T14:42:01;55.25;40.50;68.54;;
72276;Laerm;61204;49.980;8.358;2023-03-03T14:44:35;54.85;43.19;66.78;;
72276;Laerm;61204;49.980;8.358;2023-03-03T14:49:35;59.82;40.35;76.05;;
72276;Laerm;61204;49.980;8.358;2023-03-03T14:54:43;57.40;43.74;71.27;;
72276;Laerm;61204;49.980;8.358;2023-03-03T15:02:56;53.96;41.78;67.05;;
72276;Laerm;61204;49.980;8.358;2023-03-03T15:05:28;56.96;41.74;68.83;;
72276;Laerm;61204;49.980;8.358;2023-03-03T15:10:39;56.06;42.04;68.58;;
72276;Laerm;61204;49.980;8.358;2023-03-03T15:18:31;55.21;43.01;67.60;;
72276;Laerm;61204;49.980;8.358;2023-03-03T15:21:12;54.67;42.69;67.68;;
72276;Laerm;61204;49.980;8.358;2023-03-03T15:26:42;57.10;44.04;71.01;;
72276;Laerm;61204;49.980;8.358;2023-03-03T15:29:25;50.14;43.50;64.48;;
72276;Laerm;61204;49.980;8.358;2023-03-03T15:32:02;55.12;44.69;69.52;;
72276;Laerm;61204;49.980;8.358;2023-03-03T15:34:44;57.68;45.27;75.23;;
72276;Laerm;61204;49.980;8.358;2023-03-03T15:40:26;54.30;45.30;66.13;;
72276;Laerm;61204;49.980;8.358;2023-03-03T15:43:13;55.48;43.97;67.53;;
72276;Laerm;61204;49.980;8.358;2023-03-03T15:49:25;49.15;42.72;57.72;;
72276;Laerm;61204;49.980;8.358;2023-03-03T15:55:37;55.65;42.77;69.19;;
72276;Laerm;61204;49.980;8.358;2023-03-03T16:01:34;60.45;43.01;73.32;;
72276;Laerm;61204;49.980;8.358;2023-03-03T16:04:13;55.56;44.04;66.58;;
72276;Laerm;61204;49.980;8.358;2023-03-03T16:07:04;52.41;42.72;63.90;;
72276;Laerm;61204;49.980;8.358;2023-03-03T16:10:10;48.90;43.15;59.48;;
72276;Laerm;61204;49.980;8.358;2023-03-03T16:15:50;57.48;43.80;70.81;;
72276;Laerm;61204;49.980;8.358;2023-03-03T16:27:27;50.03;42.87;64.55;;
72276;Laerm;61204;49.980;8.358;2023-03-03T16:33:26;50.69;43.61;61.83;;
72276;Laerm;61204;49.980;8.358;2023-03-03T16:36:29;60.08;44.54;73.48;;
72276;Laerm;61204;49.980;8.358;2023-03-03T16:39:10;50.38;44.28;61.39;;
72276;Laerm;61204;49.980;8.358;2023-03-03T16:44:56;51.91;44.95;65.70;;
72276;Laerm;61204;49.980;8.358;2023-03-03T16:56:02;48.90;43.25;57.47;;
72276;Laerm;61204;49.980;8.358;2023-03-03T16:58:44;59.27;43.86;70.75;;
72276;Laerm;61204;49.980;8.358;2023-03-03T17:01:46;59.03;45.09;71.14;;
72276;Laerm;61204;49.980;8.358;2023-03-03T17:07:41;51.45;42.96;69.00;;
72276;Laerm;61204;49.980;8.358;2023-03-03T17:10:27;50.47;44.57;61.20;;
72276;Laerm;61204;49.980;8.358;2023-03-03T17:13:09;48.26;42.82;55.56;;
72276;Laerm;61204;49.980;8.358;2023-03-03T17:19:12;50.57;43.74;62.55;;
72276;Laerm;61204;49.980;8.358;2023-03-03T17:22:13;54.17;45.14;66.40;;
72276;Laerm;61204;49.980;8.358;2023-03-03T17:28:13;55.97;46.41;67.06;;
72276;Laerm;61204;49.980;8.358;2023-03-03T17:32:01;51.76;45.61;62.06;;
72276;Laerm;61204;49.980;8.358;2023-03-03T17:45:19;55.34;48.05;65.21;;
72276;Laerm;61204;49.980;8.358;2023-03-03T17:51:09;55.28;47.34;66.08;;
72276;Laerm;61204;49.980;8.358;2023-03-03T18:02:07;53.72;45.65;65.33;;
72276;Laerm;61204;49.980;8.358;2023-03-03T18:07:48;50.63;44.99;63.89;;
72276;Laerm;61204;49.980;8.358;2023-03-03T18:10:41;51.57;46.68;63.18;;
72276;Laerm;61204;49.980;8.358;2023-03-03T18:21:37;52.11;46.97;61.57;;
72276;Laerm;61204;49.980;8.358;2023-03-03T18:33:06;49.45;42.04;59.86;;
72276;Laerm;61204;49.980;8.358;2023-03-03T18:43:58;58.83;44.97;71.33;;
72276;Laerm;61204;49.980;8.358;2023-03-03T18:48:53;54.06;43.07;66.15;;
72276;Laerm;61204;49.980;8.358;2023-03-03T18:54:19;56.03;42.81;68.85;;
72276;Laerm;61204;49.980;8.358;2023-03-03T18:57:11;53.26;39.63;64.32;;
72276;Laerm;61204;49.980;8.358;2023-03-03T19:04:51;53.91;42.50;67.25;;
72276;Laerm;61204;49.980;8.358;2023-03-03T19:12:56;53.80;41.23;66.71;;
72276;Laerm;61204;49.980;8.358;2023-03-03T19:17:57;48.13;39.81;59.98;;
72276;Laerm;61204;49.980;8.358;2023-03-03T19:20:25;48.91;40.39;62.92;;
72276;Laerm;61204;49.980;8.358;2023-03-03T19:23:11;54.06;40.69;67.56;;
72276;Laerm;61204;49.980;8.358;2023-03-03T19:25:38;54.20;42.64;66.72;;
72276;Laerm;61204;49.980;8.358;2023-03-03T19:31:03;51.47;41.79;66.15;;
72276;Laerm;61204;49.980;8.358;2023-03-03T19:33:52;53.54;39.98;65.17;;
72276;Laerm;61204;49.980;8.358;2023-03-03T19:36:46;49.16;40.45;58.10;;
72276;Laerm;61204;49.980;8.358;2023-03-03T19:47:45;50.27;39.34;63.69;;
72276;Laerm;61204;49.980;8.358;2023-03-03T19:50:55;53.76;41.84;67.23;;
72276;Laerm;61204;49.980;8.358;2023-03-03T20:01:51;45.15;41.00;58.81;;
72276;Laerm;61204;49.980;8.358;2023-03-03T20:04:45;46.71;40.09;57.44;;